sensor_id;sensor_type;location;lat;lon;timestamp;temperature;humidity
59572;DHT22;59406;45.602;11.904;2022-09-12T00:01:16;19.60;80.80
59572;DHT22;59406;45.602;11.904;2022-09-12T00:03:44;19.50;81.10
59572;DHT22;59406;45.602;11.904;2022-09-12T00:06:17;19.30;81.00
59572;DHT22;59406;45.602;11.904;2022-09-12T00:08:43;19.30;80.70
59572;DHT22;59406;45.602;11.904;2022-09-12T00:11:10;19.40;81.10
59572;DHT22;59406;45.602;11.904;2022-09-12T00:13:38;19.30;80.80
59572;DHT22;59406;45.602;11.904;2022-09-12T00:16:14;19.20;80.70
59572;DHT22;59406;45.602;11.904;2022-09-12T00:18:42;19.30;81.30
59572;DHT22;59406;45.602;11.904;2022-09-12T00:21:10;19.10;80.80
59572;DHT22;59406;45.602;11.904;2022-09-12T00:23:37;19.20;81.00
59572;DHT22;59406;45.602;11.904;2022-09-12T00:26:05;19.20;80.80
59572;DHT22;59406;45.602;11.904;2022-09-12T00:28:33;19.20;80.80
59572;DHT22;59406;45.602;11.904;2022-09-12T00:31:04;19.20;80.90
59572;DHT22;59406;45.602;11.904;2022-09-12T00:33:30;19.10;80.70
59572;DHT22;59406;45.602;11.904;2022-09-12T00:35:56;19.00;80.30
59572;DHT22;59406;45.602;11.904;2022-09-12T00:38:22;19.10;80.60
59572;DHT22;59406;45.602;11.904;2022-09-12T00:40:48;19.00;80.40
59572;DHT22;59406;45.602;11.904;2022-09-12T00:43:39;19.10;81.40
59572;DHT22;59406;45.602;11.904;2022-09-12T00:49:08;19.00;81.30
59572;DHT22;59406;45.602;11.904;2022-09-12T00:51:36;19.00;80.80
59572;DHT22;59406;45.602;11.904;2022-09-12T00:54:07;19.00;80.80
59572;DHT22;59406;45.602;11.904;2022-09-12T00:56:36;18.90;81.10
59572;DHT22;59406;45.602;11.904;2022-09-12T00:59:12;18.90;81.40
59572;DHT22;59406;45.602;11.904;2022-09-12T01:01:40;18.90;81.30
59572;DHT22;59406;45.602;11.904;2022-09-12T01:04:09;18.80;81.00
59572;DHT22;59406;45.602;11.904;2022-09-12T01:06:39;18.80;81.60
59572;DHT22;59406;45.602;11.904;2022-09-12T01:09:06;18.70;82.50
59572;DHT22;59406;45.602;11.904;2022-09-12T01:11:37;18.60;82.20
59572;DHT22;59406;45.602;11.904;2022-09-12T01:14:05;18.70;82.10
59572;DHT22;59406;45.602;11.904;2022-09-12T01:16:35;18.60;82.80
59572;DHT22;59406;45.602;11.904;2022-09-12T01:22:06;18.40;82.60
59572;DHT22;59406;45.602;11.904;2022-09-12T01:24:40;18.50;82.40
59572;DHT22;59406;45.602;11.904;2022-09-12T01:49:35;18.60;82.40
59572;DHT22;59406;45.602;11.904;2022-09-12T01:52:21;18.60;82.60
59572;DHT22;59406;45.602;11.904;2022-09-12T01:54:56;18.70;82.30
59572;DHT22;59406;45.602;11.904;2022-09-12T01:57:29;18.60;81.90
59572;DHT22;59406;45.602;11.904;2022-09-12T02:00:00;18.60;82.10
59572;DHT22;59406;45.602;11.904;2022-09-12T02:02:36;18.70;82.20
59572;DHT22;59406;45.602;11.904;2022-09-12T02:05:12;18.80;82.60
59572;DHT22;59406;45.602;11.904;2022-09-12T02:07:45;18.80;82.00
59572;DHT22;59406;45.602;11.904;2022-09-12T02:10:24;18.90;82.70
59572;DHT22;59406;45.602;11.904;2022-09-12T02:13:18;18.90;82.50
59572;DHT22;59406;45.602;11.904;2022-09-12T02:15:53;18.90;83.20
59572;DHT22;59406;45.602;11.904;2022-09-12T02:18:21;18.90;83.40
59572;DHT22;59406;45.602;11.904;2022-09-12T02:20:48;18.90;83.10
59572;DHT22;59406;45.602;11.904;2022-09-12T02:23:21;19.00;82.70
59572;DHT22;59406;45.602;11.904;2022-09-12T02:25:51;19.10;83.00
59572;DHT22;59406;45.602;11.904;2022-09-12T02:28:29;19.10;82.70
59572;DHT22;59406;45.602;11.904;2022-09-12T02:34:09;19.20;82.30
59572;DHT22;59406;45.602;11.904;2022-09-12T02:39:08;19.30;82.30
59572;DHT22;59406;45.602;11.904;2022-09-12T02:41:35;19.40;82.10
59572;DHT22;59406;45.602;11.904;2022-09-12T02:44:01;19.40;82.40
59572;DHT22;59406;45.602;11.904;2022-09-12T02:46:53;19.40;82.00
59572;DHT22;59406;45.602;11.904;2022-09-12T02:49:20;19.40;82.10
59572;DHT22;59406;45.602;11.904;2022-09-12T02:51:48;19.40;82.40
59572;DHT22;59406;45.602;11.904;2022-09-12T02:54:15;19.30;82.40
59572;DHT22;59406;45.602;11.904;2022-09-12T02:56:44;19.40;82.30
59572;DHT22;59406;45.602;11.904;2022-09-12T02:59:13;19.40;82.00
59572;DHT22;59406;45.602;11.904;2022-09-12T03:12:51;19.10;82.80
59572;DHT22;59406;45.602;11.904;2022-09-12T03:15:25;19.10;82.30
59572;DHT22;59406;45.602;11.904;2022-09-12T03:18:04;19.20;82.50
59572;DHT22;59406;45.602;11.904;2022-09-12T03:23:31;19.30;82.60
59572;DHT22;59406;45.602;11.904;2022-09-12T03:26:24;19.20;82.80
59572;DHT22;59406;45.602;11.904;2022-09-12T03:28:53;19.10;82.40
59572;DHT22;59406;45.602;11.904;2022-09-12T03:31:21;19.10;82.30
59572;DHT22;59406;45.602;11.904;2022-09-12T03:33:47;19.10;82.20
59572;DHT22;59406;45.602;11.904;2022-09-12T03:36:21;19.10;82.90
59572;DHT22;59406;45.602;11.904;2022-09-12T03:38:47;19.00;82.60
59572;DHT22;59406;45.602;11.904;2022-09-12T03:41:13;19.00;82.50
59572;DHT22;59406;45.602;11.904;2022-09-12T03:43:39;19.00;82.40
59572;DHT22;59406;45.602;11.904;2022-09-12T03:46:06;19.00;82.30
59572;DHT22;59406;45.602;11.904;2022-09-12T03:48:32;18.90;82.70
59572;DHT22;59406;45.602;11.904;2022-09-12T03:51:02;18.80;82.80
59572;DHT22;59406;45.602;11.904;2022-09-12T03:53:29;18.80;83.00
59572;DHT22;59406;45.602;11.904;2022-09-12T03:55:56;18.80;83.50
59572;DHT22;59406;45.602;11.904;2022-09-12T03:58:23;18.70;83.40
59572;DHT22;59406;45.602;11.904;2022-09-12T04:00:50;18.70;83.20
59572;DHT22;59406;45.602;11.904;2022-09-12T04:03:16;18.80;83.30
59572;DHT22;59406;45.602;11.904;2022-09-12T04:05:44;18.70;83.40
59572;DHT22;59406;45.602;11.904;2022-09-12T04:08:10;18.70;83.20
59572;DHT22;59406;45.602;11.904;2022-09-12T04:10:36;18.70;83.30
59572;DHT22;59406;45.602;11.904;2022-09-12T04:13:02;18.70;83.30
59572;DHT22;59406;45.602;11.904;2022-09-12T04:15:28;18.70;83.30
59572;DHT22;59406;45.602;11.904;2022-09-12T04:17:54;18.70;83.40
59572;DHT22;59406;45.602;11.904;2022-09-12T04:20:20;18.80;83.20
59572;DHT22;59406;45.602;11.904;2022-09-12T04:22:46;18.70;83.70
59572;DHT22;59406;45.602;11.904;2022-09-12T04:25:12;18.70;83.50
59572;DHT22;59406;45.602;11.904;2022-09-12T04:27:39;18.70;83.30
59572;DHT22;59406;45.602;11.904;2022-09-12T04:30:06;18.70;83.40
59572;DHT22;59406;45.602;11.904;2022-09-12T04:32:32;18.70;83.40
59572;DHT22;59406;45.602;11.904;2022-09-12T04:34:58;18.70;83.60
59572;DHT22;59406;45.602;11.904;2022-09-12T04:37:24;18.80;83.30
59572;DHT22;59406;45.602;11.904;2022-09-12T04:39:50;18.70;83.20
59572;DHT22;59406;45.602;11.904;2022-09-12T04:42:16;18.80;83.30
59572;DHT22;59406;45.602;11.904;2022-09-12T04:44:42;18.80;83.30
59572;DHT22;59406;45.602;11.904;2022-09-12T04:47:08;18.70;83.10
59572;DHT22;59406;45.602;11.904;2022-09-12T04:49:35;18.70;83.50
59572;DHT22;59406;45.602;11.904;2022-09-12T04:52:01;18.70;83.70
59572;DHT22;59406;45.602;11.904;2022-09-12T04:54:27;18.80;83.30
59572;DHT22;59406;45.602;11.904;2022-09-12T04:56:53;18.70;83.50
59572;DHT22;59406;45.602;11.904;2022-09-12T04:59:21;18.70;83.30
59572;DHT22;59406;45.602;11.904;2022-09-12T05:01:47;18.70;83.30
59572;DHT22;59406;45.602;11.904;2022-09-12T05:04:14;18.70;83.20
59572;DHT22;59406;45.602;11.904;2022-09-12T05:06:41;18.70;82.90
59572;DHT22;59406;45.602;11.904;2022-09-12T05:09:09;18.70;82.90
59572;DHT22;59406;45.602;11.904;2022-09-12T05:11:38;18.60;82.70
59572;DHT22;59406;45.602;11.904;2022-09-12T05:14:04;18.70;83.10
59572;DHT22;59406;45.602;11.904;2022-09-12T05:16:30;18.60;83.20
59572;DHT22;59406;45.602;11.904;2022-09-12T05:18:58;18.60;83.40
59572;DHT22;59406;45.602;11.904;2022-09-12T05:21:25;18.70;83.40
59572;DHT22;59406;45.602;11.904;2022-09-12T05:23:55;18.70;83.80
59572;DHT22;59406;45.602;11.904;2022-09-12T05:26:25;18.70;83.10
59572;DHT22;59406;45.602;11.904;2022-09-12T05:28:52;18.80;83.10
59572;DHT22;59406;45.602;11.904;2022-09-12T05:31:23;19.00;83.20
59572;DHT22;59406;45.602;11.904;2022-09-12T05:33:51;18.90;83.40
59572;DHT22;59406;45.602;11.904;2022-09-12T05:36:20;18.90;83.40
59572;DHT22;59406;45.602;11.904;2022-09-12T05:38:46;19.00;84.00
59572;DHT22;59406;45.602;11.904;2022-09-12T05:41:20;19.20;84.10
59572;DHT22;59406;45.602;11.904;2022-09-12T05:43:53;19.30;83.30
59572;DHT22;59406;45.602;11.904;2022-09-12T05:46:22;19.60;82.90
59572;DHT22;59406;45.602;11.904;2022-09-12T05:48:49;19.80;82.70
59572;DHT22;59406;45.602;11.904;2022-09-12T05:51:18;20.00;82.50
59572;DHT22;59406;45.602;11.904;2022-09-12T05:53:51;20.20;82.10
59572;DHT22;59406;45.602;11.904;2022-09-12T05:56:20;20.50;82.00
59572;DHT22;59406;45.602;11.904;2022-09-12T05:58:55;20.80;81.30
59572;DHT22;59406;45.602;11.904;2022-09-12T06:01:22;20.90;79.60
59572;DHT22;59406;45.602;11.904;2022-09-12T06:03:53;21.20;79.20
59572;DHT22;59406;45.602;11.904;2022-09-12T06:06:22;21.50;78.90
59572;DHT22;59406;45.602;11.904;2022-09-12T06:08:50;21.70;78.80
59572;DHT22;59406;45.602;11.904;2022-09-12T06:11:20;21.90;78.10
59572;DHT22;59406;45.602;11.904;2022-09-12T06:13:46;22.20;78.00
59572;DHT22;59406;45.602;11.904;2022-09-12T06:16:14;22.40;77.80
59572;DHT22;59406;45.602;11.904;2022-09-12T06:18:41;22.60;77.20
59572;DHT22;59406;45.602;11.904;2022-09-12T06:21:12;22.80;77.40
59572;DHT22;59406;45.602;11.904;2022-09-12T06:23:39;23.00;76.80
59572;DHT22;59406;45.602;11.904;2022-09-12T06:26:09;23.20;76.60
59572;DHT22;59406;45.602;11.904;2022-09-12T06:28:37;23.20;76.80
59572;DHT22;59406;45.602;11.904;2022-09-12T06:31:09;23.50;76.60
59572;DHT22;59406;45.602;11.904;2022-09-12T06:33:38;23.70;76.90
59572;DHT22;59406;45.602;11.904;2022-09-12T06:36:10;23.70;76.20
59572;DHT22;59406;45.602;11.904;2022-09-12T06:38:37;23.80;75.50
59572;DHT22;59406;45.602;11.904;2022-09-12T06:41:04;24.10;76.00
59572;DHT22;59406;45.602;11.904;2022-09-12T06:43:32;24.40;75.60
59572;DHT22;59406;45.602;11.904;2022-09-12T06:45:59;24.40;75.60
59572;DHT22;59406;45.602;11.904;2022-09-12T06:48:26;24.80;75.50
59572;DHT22;59406;45.602;11.904;2022-09-12T06:51:00;25.00;75.00
59572;DHT22;59406;45.602;11.904;2022-09-12T06:53:28;25.20;73.80
59572;DHT22;59406;45.602;11.904;2022-09-12T06:56:01;25.30;74.60
59572;DHT22;59406;45.602;11.904;2022-09-12T06:58:29;25.50;73.50
59572;DHT22;59406;45.602;11.904;2022-09-12T07:01:06;25.30;74.10
59572;DHT22;59406;45.602;11.904;2022-09-12T07:03:34;25.30;73.70
59572;DHT22;59406;45.602;11.904;2022-09-12T07:06:05;25.70;73.40
59572;DHT22;59406;45.602;11.904;2022-09-12T07:08:32;25.80;71.50
59572;DHT22;59406;45.602;11.904;2022-09-12T07:11:15;25.80;72.00
59572;DHT22;59406;45.602;11.904;2022-09-12T07:13:44;26.20;72.10
59572;DHT22;59406;45.602;11.904;2022-09-12T07:16:11;26.70;72.20
59572;DHT22;59406;45.602;11.904;2022-09-12T07:18:38;27.10;72.00
59572;DHT22;59406;45.602;11.904;2022-09-12T07:21:07;27.30;70.20
59572;DHT22;59406;45.602;11.904;2022-09-12T07:23:33;27.40;70.30
59572;DHT22;59406;45.602;11.904;2022-09-12T07:26:00;27.60;69.60
59572;DHT22;59406;45.602;11.904;2022-09-12T07:28:29;27.70;68.40
59572;DHT22;59406;45.602;11.904;2022-09-12T07:30:56;27.90;68.70
59572;DHT22;59406;45.602;11.904;2022-09-12T07:33:25;28.20;66.10
59572;DHT22;59406;45.602;11.904;2022-09-12T07:35:52;28.30;65.00
59572;DHT22;59406;45.602;11.904;2022-09-12T07:38:21;28.50;66.40
59572;DHT22;59406;45.602;11.904;2022-09-12T07:40:47;28.60;65.30
59572;DHT22;59406;45.602;11.904;2022-09-12T07:43:13;28.30;63.90
59572;DHT22;59406;45.602;11.904;2022-09-12T07:45:39;28.60;63.00
59572;DHT22;59406;45.602;11.904;2022-09-12T07:48:08;28.90;61.70
59572;DHT22;59406;45.602;11.904;2022-09-12T07:50:35;29.40;59.20
59572;DHT22;59406;45.602;11.904;2022-09-12T07:53:02;29.40;59.70
59572;DHT22;59406;45.602;11.904;2022-09-12T07:55:29;29.70;58.20
59572;DHT22;59406;45.602;11.904;2022-09-12T07:57:56;29.80;58.30
59572;DHT22;59406;45.602;11.904;2022-09-12T08:00:22;29.70;59.20
59572;DHT22;59406;45.602;11.904;2022-09-12T08:02:52;29.80;57.00
59572;DHT22;59406;45.602;11.904;2022-09-12T08:05:19;30.30;56.60
59572;DHT22;59406;45.602;11.904;2022-09-12T08:07:46;30.30;57.20
59572;DHT22;59406;45.602;11.904;2022-09-12T08:10:12;29.80;57.70
59572;DHT22;59406;45.602;11.904;2022-09-12T08:12:38;30.00;57.10
59572;DHT22;59406;45.602;11.904;2022-09-12T08:15:04;30.60;55.70
59572;DHT22;59406;45.602;11.904;2022-09-12T08:17:30;30.00;55.50
59572;DHT22;59406;45.602;11.904;2022-09-12T08:19:56;29.60;56.00
59572;DHT22;59406;45.602;11.904;2022-09-12T08:22:22;29.60;56.30
59572;DHT22;59406;45.602;11.904;2022-09-12T08:24:49;29.80;56.30
59572;DHT22;59406;45.602;11.904;2022-09-12T08:27:15;31.10;54.60
59572;DHT22;59406;45.602;11.904;2022-09-12T08:29:41;31.90;51.00
59572;DHT22;59406;45.602;11.904;2022-09-12T08:32:07;32.20;49.20
59572;DHT22;59406;45.602;11.904;2022-09-12T08:34:33;32.60;48.90
59572;DHT22;59406;45.602;11.904;2022-09-12T08:36:59;32.90;47.40
59572;DHT22;59406;45.602;11.904;2022-09-12T08:39:25;32.70;46.50
59572;DHT22;59406;45.602;11.904;2022-09-12T08:42:01;32.70;48.00
59572;DHT22;59406;45.602;11.904;2022-09-12T08:50:02;34.10;44.10
59572;DHT22;59406;45.602;11.904;2022-09-12T08:55:22;34.70;42.70
59572;DHT22;59406;45.602;11.904;2022-09-12T08:57:50;35.30;41.90
59572;DHT22;59406;45.602;11.904;2022-09-12T09:00:17;34.90;42.40
59572;DHT22;59406;45.602;11.904;2022-09-12T09:05:50;35.50;40.20
59572;DHT22;59406;45.602;11.904;2022-09-12T09:14:08;34.70;40.20
59572;DHT22;59406;45.602;11.904;2022-09-12T09:16:56;35.10;40.20
59572;DHT22;59406;45.602;11.904;2022-09-12T09:19:31;35.70;40.70
59572;DHT22;59406;45.602;11.904;2022-09-12T09:22:00;36.50;39.00
59572;DHT22;59406;45.602;11.904;2022-09-12T09:24:56;36.40;38.50
59572;DHT22;59406;45.602;11.904;2022-09-12T09:29:57;36.70;39.00
59572;DHT22;59406;45.602;11.904;2022-09-12T09:32:33;37.60;37.60
59572;DHT22;59406;45.602;11.904;2022-09-12T09:35:14;38.00;35.50
59572;DHT22;59406;45.602;11.904;2022-09-12T09:37:41;38.40;36.10
59572;DHT22;59406;45.602;11.904;2022-09-12T09:40:24;38.40;36.30
59572;DHT22;59406;45.602;11.904;2022-09-12T09:45:36;38.20;36.00
59572;DHT22;59406;45.602;11.904;2022-09-12T09:48:14;38.50;34.90
59572;DHT22;59406;45.602;11.904;2022-09-12T09:50:42;38.70;35.20
59572;DHT22;59406;45.602;11.904;2022-09-12T09:53:22;39.30;35.10
59572;DHT22;59406;45.602;11.904;2022-09-12T09:55:50;39.00;35.20
59572;DHT22;59406;45.602;11.904;2022-09-12T09:58:31;38.90;34.70
59572;DHT22;59406;45.602;11.904;2022-09-12T10:01:03;39.30;33.10
59572;DHT22;59406;45.602;11.904;2022-09-12T10:03:32;38.80;34.00
59572;DHT22;59406;45.602;11.904;2022-09-12T10:06:06;38.40;33.80
59572;DHT22;59406;45.602;11.904;2022-09-12T10:08:37;38.40;34.10
59572;DHT22;59406;45.602;11.904;2022-09-12T10:13:38;37.90;34.10
59572;DHT22;59406;45.602;11.904;2022-09-12T10:16:17;38.70;32.20
59572;DHT22;59406;45.602;11.904;2022-09-12T10:18:44;39.90;31.80
59572;DHT22;59406;45.602;11.904;2022-09-12T10:24:21;39.10;31.20
59572;DHT22;59406;45.602;11.904;2022-09-12T10:29:38;41.10;29.60
59572;DHT22;59406;45.602;11.904;2022-09-12T10:32:07;41.60;29.50
59572;DHT22;59406;45.602;11.904;2022-09-12T10:34:36;42.00;29.20
59572;DHT22;59406;45.602;11.904;2022-09-12T10:37:17;0.20;0.20
59572;DHT22;59406;45.602;11.904;2022-09-12T10:39:54;0.20;0.20
59572;DHT22;59406;45.602;11.904;2022-09-12T10:42:41;0.20;0.20
59572;DHT22;59406;45.602;11.904;2022-09-12T10:45:29;0.20;0.20
59572;DHT22;59406;45.602;11.904;2022-09-12T10:47:58;0.20;0.20
59572;DHT22;59406;45.602;11.904;2022-09-12T10:52:53;0.20;0.20
59572;DHT22;59406;45.602;11.904;2022-09-12T10:55:24;0.20;0.20
59572;DHT22;59406;45.602;11.904;2022-09-12T10:58:12;0.20;0.20
59572;DHT22;59406;45.602;11.904;2022-09-12T11:00:46;0.20;0.20
59572;DHT22;59406;45.602;11.904;2022-09-12T11:04:13;0.20;0.20
59572;DHT22;59406;45.602;11.904;2022-09-12T11:06:24;0.20;0.20
59572;DHT22;59406;45.602;11.904;2022-09-12T11:09:05;0.20;0.20
59572;DHT22;59406;45.602;11.904;2022-09-12T11:12:24;0.20;0.20
59572;DHT22;59406;45.602;11.904;2022-09-12T11:17:42;0.20;0.20
59572;DHT22;59406;45.602;11.904;2022-09-12T11:24:04;0.20;0.20
59572;DHT22;59406;45.602;11.904;2022-09-12T11:39:53;0.20;0.20
59572;DHT22;59406;45.602;11.904;2022-09-12T11:42:26;0.20;0.20
59572;DHT22;59406;45.602;11.904;2022-09-12T11:45:22;0.20;0.20
59572;DHT22;59406;45.602;11.904;2022-09-12T11:47:54;0.20;0.20
59572;DHT22;59406;45.602;11.904;2022-09-12T11:50:28;0.20;0.20
59572;DHT22;59406;45.602;11.904;2022-09-12T11:53:12;0.20;0.20
59572;DHT22;59406;45.602;11.904;2022-09-12T11:56:03;0.20;0.20
59572;DHT22;59406;45.602;11.904;2022-09-12T11:58:30;0.20;0.20
59572;DHT22;59406;45.602;11.904;2022-09-12T12:01:14;0.20;0.20
59572;DHT22;59406;45.602;11.904;2022-09-12T12:03:44;0.20;0.20
59572;DHT22;59406;45.602;11.904;2022-09-12T12:06:12;0.20;0.20
59572;DHT22;59406;45.602;11.904;2022-09-12T12:08:42;0.20;0.20
59572;DHT22;59406;45.602;11.904;2022-09-12T12:11:10;0.20;0.20
59572;DHT22;59406;45.602;11.904;2022-09-12T12:13:57;0.20;0.20
59572;DHT22;59406;45.602;11.904;2022-09-12T12:16:32;0.20;0.20
59572;DHT22;59406;45.602;11.904;2022-09-12T12:19:00;0.20;0.20
59572;DHT22;59406;45.602;11.904;2022-09-12T12:34:30;0.20;0.20
59572;DHT22;59406;45.602;11.904;2022-09-12T12:36:57;0.20;0.20
59572;DHT22;59406;45.602;11.904;2022-09-12T12:41:59;0.20;0.20
59572;DHT22;59406;45.602;11.904;2022-09-12T12:44:58;0.20;0.20
59572;DHT22;59406;45.602;11.904;2022-09-12T12:47:25;0.20;0.20
59572;DHT22;59406;45.602;11.904;2022-09-12T12:52:24;0.20;0.20
59572;DHT22;59406;45.602;11.904;2022-09-12T12:54:57;0.20;0.20
59572;DHT22;59406;45.602;11.904;2022-09-12T12:57:32;0.20;0.20
59572;DHT22;59406;45.602;11.904;2022-09-12T13:03:09;0.20;0.20
59572;DHT22;59406;45.602;11.904;2022-09-12T13:05:50;0.20;0.20
59572;DHT22;59406;45.602;11.904;2022-09-12T13:10:54;0.20;0.20
59572;DHT22;59406;45.602;11.904;2022-09-12T13:13:32;0.20;0.20
59572;DHT22;59406;45.602;11.904;2022-09-12T13:16:00;0.20;0.20
59572;DHT22;59406;45.602;11.904;2022-09-12T13:18:33;0.20;0.20
59572;DHT22;59406;45.602;11.904;2022-09-12T13:21:14;0.20;0.20
59572;DHT22;59406;45.602;11.904;2022-09-12T13:23:40;0.20;0.20
59572;DHT22;59406;45.602;11.904;2022-09-12T13:26:12;0.20;0.20
59572;DHT22;59406;45.602;11.904;2022-09-12T13:28:38;0.20;0.20
59572;DHT22;59406;45.602;11.904;2022-09-12T13:31:27;0.20;0.20
59572;DHT22;59406;45.602;11.904;2022-09-12T13:33:58;0.20;0.20
59572;DHT22;59406;45.602;11.904;2022-09-12T13:39:12;0.20;0.20
59572;DHT22;59406;45.602;11.904;2022-09-12T13:44:27;0.20;0.20
59572;DHT22;59406;45.602;11.904;2022-09-12T13:46:57;0.20;0.20
59572;DHT22;59406;45.602;11.904;2022-09-12T13:52:00;0.20;0.20
59572;DHT22;59406;45.602;11.904;2022-09-12T13:54:27;0.20;0.20
59572;DHT22;59406;45.602;11.904;2022-09-12T13:56:53;0.20;0.20
59572;DHT22;59406;45.602;11.904;2022-09-12T13:59:20;0.20;0.20
59572;DHT22;59406;45.602;11.904;2022-09-12T14:01:46;0.20;0.20
59572;DHT22;59406;45.602;11.904;2022-09-12T14:04:20;0.20;0.20
59572;DHT22;59406;45.602;11.904;2022-09-12T14:07:24;0.20;0.20
59572;DHT22;59406;45.602;11.904;2022-09-12T14:09:58;0.20;0.20
59572;DHT22;59406;45.602;11.904;2022-09-12T14:12:33;0.20;0.20
59572;DHT22;59406;45.602;11.904;2022-09-12T14:15:00;0.20;0.20
59572;DHT22;59406;45.602;11.904;2022-09-12T14:17:31;0.20;0.20
59572;DHT22;59406;45.602;11.904;2022-09-12T14:20:00;0.20;0.20
59572;DHT22;59406;45.602;11.904;2022-09-12T14:22:26;0.20;0.20
59572;DHT22;59406;45.602;11.904;2022-09-12T14:24:55;0.20;0.20
59572;DHT22;59406;45.602;11.904;2022-09-12T14:27:38;0.20;0.20
59572;DHT22;59406;45.602;11.904;2022-09-12T14:33:16;0.20;0.20
59572;DHT22;59406;45.602;11.904;2022-09-12T14:35:48;0.20;0.20
59572;DHT22;59406;45.602;11.904;2022-09-12T14:40:46;0.20;0.20
59572;DHT22;59406;45.602;11.904;2022-09-12T14:43:28;0.20;0.20
59572;DHT22;59406;45.602;11.904;2022-09-12T14:45:57;0.20;0.20
59572;DHT22;59406;45.602;11.904;2022-09-12T14:48:32;0.20;0.20
59572;DHT22;59406;45.602;11.904;2022-09-12T14:51:00;0.20;0.20
59572;DHT22;59406;45.602;11.904;2022-09-12T14:53:36;0.20;0.20
59572;DHT22;59406;45.602;11.904;2022-09-12T14:56:10;0.20;0.20
59572;DHT22;59406;45.602;11.904;2022-09-12T14:58:38;0.20;0.20
59572;DHT22;59406;45.602;11.904;2022-09-12T15:03:47;0.20;0.20
59572;DHT22;59406;45.602;11.904;2022-09-12T15:06:34;0.20;0.20
59572;DHT22;59406;45.602;11.904;2022-09-12T15:09:07;0.20;0.20
59572;DHT22;59406;45.602;11.904;2022-09-12T15:11:33;0.20;0.20
59572;DHT22;59406;45.602;11.904;2022-09-12T15:14:11;0.20;0.20
59572;DHT22;59406;45.602;11.904;2022-09-12T15:16:37;0.20;0.20
59572;DHT22;59406;45.602;11.904;2022-09-12T15:19:03;0.20;0.20
59572;DHT22;59406;45.602;11.904;2022-09-12T15:21:29;0.20;0.20
59572;DHT22;59406;45.602;11.904;2022-09-12T15:23:55;0.20;0.20
59572;DHT22;59406;45.602;11.904;2022-09-12T15:26:24;0.20;0.20
59572;DHT22;59406;45.602;11.904;2022-09-12T15:28:52;0.20;0.20
59572;DHT22;59406;45.602;11.904;2022-09-12T15:33:46;0.20;0.20
59572;DHT22;59406;45.602;11.904;2022-09-12T15:36:15;33.30;40.20
59572;DHT22;59406;45.602;11.904;2022-09-12T15:38:42;32.90;38.50
59572;DHT22;59406;45.602;11.904;2022-09-12T15:41:14;32.30;40.30
59572;DHT22;59406;45.602;11.904;2022-09-12T15:43:40;31.80;40.10
59572;DHT22;59406;45.602;11.904;2022-09-12T15:46:09;31.80;38.80
59572;DHT22;59406;45.602;11.904;2022-09-12T15:48:36;31.80;38.40
59572;DHT22;59406;45.602;11.904;2022-09-12T15:51:02;32.00;38.30
59572;DHT22;59406;45.602;11.904;2022-09-12T15:53:29;32.70;37.40
59572;DHT22;59406;45.602;11.904;2022-09-12T15:55:56;33.00;38.20
59572;DHT22;59406;45.602;11.904;2022-09-12T15:58:22;33.50;37.60
59572;DHT22;59406;45.602;11.904;2022-09-12T16:00:48;33.60;38.40
59572;DHT22;59406;45.602;11.904;2022-09-12T16:03:26;33.50;37.50
59572;DHT22;59406;45.602;11.904;2022-09-12T16:05:57;33.40;35.70
59572;DHT22;59406;45.602;11.904;2022-09-12T16:08:24;33.00;36.90
59572;DHT22;59406;45.602;11.904;2022-09-12T16:10:56;32.50;38.90
59572;DHT22;59406;45.602;11.904;2022-09-12T16:13:23;32.20;39.10
59572;DHT22;59406;45.602;11.904;2022-09-12T16:15:49;32.00;40.50
59572;DHT22;59406;45.602;11.904;2022-09-12T16:18:15;32.00;41.10
59572;DHT22;59406;45.602;11.904;2022-09-12T16:20:42;32.10;40.80
59572;DHT22;59406;45.602;11.904;2022-09-12T16:23:11;32.10;42.00
59572;DHT22;59406;45.602;11.904;2022-09-12T16:25:39;32.10;41.20
59572;DHT22;59406;45.602;11.904;2022-09-12T16:28:06;32.20;40.80
59572;DHT22;59406;45.602;11.904;2022-09-12T16:30:32;32.70;40.20
59572;DHT22;59406;45.602;11.904;2022-09-12T16:32:58;32.20;40.90
59572;DHT22;59406;45.602;11.904;2022-09-12T16:35:25;31.60;44.30
59572;DHT22;59406;45.602;11.904;2022-09-12T16:37:52;31.10;45.20
59572;DHT22;59406;45.602;11.904;2022-09-12T16:40:18;30.00;47.60
59572;DHT22;59406;45.602;11.904;2022-09-12T16:42:45;29.40;49.40
59572;DHT22;59406;45.602;11.904;2022-09-12T16:45:11;28.90;51.50
59572;DHT22;59406;45.602;11.904;2022-09-12T16:47:38;28.90;52.30
59572;DHT22;59406;45.602;11.904;2022-09-12T16:50:05;28.70;53.70
59572;DHT22;59406;45.602;11.904;2022-09-12T16:52:33;28.20;55.10
59572;DHT22;59406;45.602;11.904;2022-09-12T16:54:59;28.00;56.20
59572;DHT22;59406;45.602;11.904;2022-09-12T16:57:25;27.90;56.80
59572;DHT22;59406;45.602;11.904;2022-09-12T16:59:51;28.30;55.20
59572;DHT22;59406;45.602;11.904;2022-09-12T17:02:17;28.80;54.30
59572;DHT22;59406;45.602;11.904;2022-09-12T17:04:43;29.00;53.20
59572;DHT22;59406;45.602;11.904;2022-09-12T17:07:08;29.10;51.50
59572;DHT22;59406;45.602;11.904;2022-09-12T17:09:35;28.90;54.20
59572;DHT22;59406;45.602;11.904;2022-09-12T17:12:01;28.30;56.20
59572;DHT22;59406;45.602;11.904;2022-09-12T17:14:27;27.80;57.70
59572;DHT22;59406;45.602;11.904;2022-09-12T17:16:53;27.50;58.10
59572;DHT22;59406;45.602;11.904;2022-09-12T17:19:24;27.20;58.60
59572;DHT22;59406;45.602;11.904;2022-09-12T17:21:51;27.10;59.10
59572;DHT22;59406;45.602;11.904;2022-09-12T17:24:18;27.00;60.00
59572;DHT22;59406;45.602;11.904;2022-09-12T17:26:45;26.90;60.10
59572;DHT22;59406;45.602;11.904;2022-09-12T17:29:12;26.60;61.10
59572;DHT22;59406;45.602;11.904;2022-09-12T17:31:42;26.50;62.00
59572;DHT22;59406;45.602;11.904;2022-09-12T17:34:09;26.30;65.10
59572;DHT22;59406;45.602;11.904;2022-09-12T17:36:39;26.10;65.80
59572;DHT22;59406;45.602;11.904;2022-09-12T17:39:09;26.00;66.20
59572;DHT22;59406;45.602;11.904;2022-09-12T17:41:36;26.00;67.10
59572;DHT22;59406;45.602;11.904;2022-09-12T17:44:02;25.90;67.20
59572;DHT22;59406;45.602;11.904;2022-09-12T17:46:32;25.80;67.20
59572;DHT22;59406;45.602;11.904;2022-09-12T17:49:00;25.90;67.10
59572;DHT22;59406;45.602;11.904;2022-09-12T17:51:28;26.00;67.00
59572;DHT22;59406;45.602;11.904;2022-09-12T17:54:08;26.00;67.00
59572;DHT22;59406;45.602;11.904;2022-09-12T17:56:35;25.90;67.70
59572;DHT22;59406;45.602;11.904;2022-09-12T17:59:04;25.80;67.80
59572;DHT22;59406;45.602;11.904;2022-09-12T18:01:30;25.60;67.70
59572;DHT22;59406;45.602;11.904;2022-09-12T18:04:15;25.50;68.00
59572;DHT22;59406;45.602;11.904;2022-09-12T18:06:41;25.40;68.00